This is the latest recevied weather packets stored in our database for station/object OK1FRN-6. If no packets are shown the sender has not sent any weather packets the latest 10 day(s).
| Time | Temp. | Humidity | Pressure | Rain* | Wind** | Luminosity | Snow |
|---|---|---|---|---|---|---|---|
| 1777664196 | 13.33° C | 42% | 1027.1 hPa | - | - | - | - |
| 1777663584 | 13.89° C | 41% | 1027.1 hPa | - | - | - | - |
| 1777663278 | 14.44° C | 41% | 1027 hPa | - | - | - | - |
| 1777662972 | 14.44° C | 40% | 1027.1 hPa | - | - | - | - |
| 1777662666 | 15° C | 40% | 1027 hPa | - | - | - | - |
| 1777661747 | 15.56° C | 39% | 1027 hPa | - | - | - | - |
| 1777661441 | 16.11° C | 38% | 1026.9 hPa | - | - | - | - |
| 1777660522 | 17.22° C | 37% | 1026.8 hPa | - | - | - | - |
| 1777659296 | 18.33° C | 35% | 1026.7 hPa | - | - | - | - |
| 1777656537 | 20.56° C | 32% | 1026.5 hPa | - | - | - | - |
| 1777654697 | 21.67° C | 30% | 1026.6 hPa | - | - | - | - |
| 1777654390 | 21.67° C | 30% | 1026.6 hPa | - | - | - | - |
| 1777653470 | 21.67° C | 29% | 1026.7 hPa | - | - | - | - |
| 1777653163 | 21.67° C | 29% | 1026.7 hPa | - | - | - | - |
| 1777652549 | 21.67° C | 29% | 1026.8 hPa | - | - | - | - |
| 1777651629 | 22.22° C | 28% | 1026.9 hPa | - | - | - | - |
| 1777651015 | 22.22° C | 28% | 1026.9 hPa | - | - | - | - |
| 1777650708 | 22.78° C | 27% | 1027 hPa | - | - | - | - |
| 1777650401 | 22.78° C | 28% | 1027 hPa | - | - | - | - |
| 1777650094 | 22.78° C | 27% | 1027 hPa | - | - | - | - |
| 1777649787 | 22.78° C | 27% | 1027.1 hPa | - | - | - | - |
| 1777649480 | 22.78° C | 27% | 1027.1 hPa | - | - | - | - |
| 1777649173 | 22.78° C | 27% | 1027.2 hPa | - | - | - | - |
| 1777648867 | 23.33° C | 27% | 1027.3 hPa | - | - | - | - |
| 1777648560 | 22.78° C | 27% | 1027.3 hPa | - | - | - | - |
* Rain since midnight (hover to see other rain measurements)
** Current wind speed in m/s (hover to see current wind gust speed)